sensor_id;sensor_type;location;lat;lon;timestamp;temperature;humidity
6375;DHT22;35400;45.472;-122.822;2022-12-10T00:01:32;5.80;99.90
6375;DHT22;35400;45.472;-122.822;2022-12-10T00:04:00;5.80;99.90
6375;DHT22;35400;45.472;-122.822;2022-12-10T00:06:30;5.80;99.90
6375;DHT22;35400;45.472;-122.822;2022-12-10T00:08:59;5.70;99.90
6375;DHT22;35400;45.472;-122.822;2022-12-10T00:11:27;5.70;99.90
6375;DHT22;35400;45.472;-122.822;2022-12-10T00:13:54;5.70;99.90
6375;DHT22;35400;45.472;-122.822;2022-12-10T00:16:23;5.70;99.90
6375;DHT22;35400;45.472;-122.822;2022-12-10T00:18:50;5.80;99.90
6375;DHT22;35400;45.472;-122.822;2022-12-10T00:21:23;5.80;99.90
6375;DHT22;35400;45.472;-122.822;2022-12-10T00:23:51;5.80;99.90
6375;DHT22;35400;45.472;-122.822;2022-12-10T00:26:21;5.80;99.90
6375;DHT22;35400;45.472;-122.822;2022-12-10T00:28:49;5.80;99.90
6375;DHT22;35400;45.472;-122.822;2022-12-10T00:31:19;5.80;99.90
6375;DHT22;35400;45.472;-122.822;2022-12-10T00:33:47;5.80;99.90
6375;DHT22;35400;45.472;-122.822;2022-12-10T00:36:23;5.80;99.90
6375;DHT22;35400;45.472;-122.822;2022-12-10T00:38:51;5.70;99.90
6375;DHT22;35400;45.472;-122.822;2022-12-10T00:41:19;5.70;99.90
6375;DHT22;35400;45.472;-122.822;2022-12-10T00:43:46;5.70;99.90
6375;DHT22;35400;45.472;-122.822;2022-12-10T00:46:14;5.70;99.90
6375;DHT22;35400;45.472;-122.822;2022-12-10T00:48:42;5.70;99.90
6375;DHT22;35400;45.472;-122.822;2022-12-10T00:51:22;5.70;99.90
6375;DHT22;35400;45.472;-122.822;2022-12-10T00:53:51;5.60;99.90
6375;DHT22;35400;45.472;-122.822;2022-12-10T00:56:22;5.60;99.90
6375;DHT22;35400;45.472;-122.822;2022-12-10T00:58:50;5.60;99.90
6375;DHT22;35400;45.472;-122.822;2022-12-10T01:01:30;5.60;99.90
6375;DHT22;35400;45.472;-122.822;2022-12-10T01:04:03;5.60;99.90
6375;DHT22;35400;45.472;-122.822;2022-12-10T01:06:40;5.50;99.90
6375;DHT22;35400;45.472;-122.822;2022-12-10T01:09:10;5.50;99.90
6375;DHT22;35400;45.472;-122.822;2022-12-10T01:11:39;5.50;99.90
6375;DHT22;35400;45.472;-122.822;2022-12-10T01:14:09;5.50;99.90
6375;DHT22;35400;45.472;-122.822;2022-12-10T01:16:36;5.50;99.90
6375;DHT22;35400;45.472;-122.822;2022-12-10T01:19:04;5.50;99.90
6375;DHT22;35400;45.472;-122.822;2022-12-10T01:21:34;5.50;99.90
6375;DHT22;35400;45.472;-122.822;2022-12-10T01:24:01;5.50;99.90
6375;DHT22;35400;45.472;-122.822;2022-12-10T01:26:34;5.50;99.90
6375;DHT22;35400;45.472;-122.822;2022-12-10T01:29:02;5.50;99.90
6375;DHT22;35400;45.472;-122.822;2022-12-10T01:31:31;5.50;99.90
6375;DHT22;35400;45.472;-122.822;2022-12-10T01:33:59;5.50;99.90
6375;DHT22;35400;45.472;-122.822;2022-12-10T01:36:29;5.50;99.90
6375;DHT22;35400;45.472;-122.822;2022-12-10T01:38:57;5.50;99.90
6375;DHT22;35400;45.472;-122.822;2022-12-10T01:41:29;5.50;99.90
6375;DHT22;35400;45.472;-122.822;2022-12-10T01:46:42;5.60;99.90
6375;DHT22;35400;45.472;-122.822;2022-12-10T01:49:11;5.60;99.90
6375;DHT22;35400;45.472;-122.822;2022-12-10T01:51:40;5.60;99.90
6375;DHT22;35400;45.472;-122.822;2022-12-10T01:54:15;5.60;99.90
6375;DHT22;35400;45.472;-122.822;2022-12-10T01:56:45;5.60;99.90
6375;DHT22;35400;45.472;-122.822;2022-12-10T01:59:12;5.60;99.90
6375;DHT22;35400;45.472;-122.822;2022-12-10T02:07:32;5.60;99.90
6375;DHT22;35400;45.472;-122.822;2022-12-10T02:13:10;5.60;99.90
6375;DHT22;35400;45.472;-122.822;2022-12-10T02:15:41;5.60;99.90
6375;DHT22;35400;45.472;-122.822;2022-12-10T02:18:21;5.60;99.90
6375;DHT22;35400;45.472;-122.822;2022-12-10T02:20:57;5.60;99.90
6375;DHT22;35400;45.472;-122.822;2022-12-10T02:23:32;5.60;99.90
6375;DHT22;35400;45.472;-122.822;2022-12-10T02:31:22;5.60;99.90
6375;DHT22;35400;45.472;-122.822;2022-12-10T02:33:53;5.60;99.90
6375;DHT22;35400;45.472;-122.822;2022-12-10T02:36:25;5.60;99.90
6375;DHT22;35400;45.472;-122.822;2022-12-10T02:38:54;5.60;99.90
6375;DHT22;35400;45.472;-122.822;2022-12-10T02:41:28;5.60;99.90
6375;DHT22;35400;45.472;-122.822;2022-12-10T02:43:59;5.60;99.90
6375;DHT22;35400;45.472;-122.822;2022-12-10T02:46:28;5.60;99.90
6375;DHT22;35400;45.472;-122.822;2022-12-10T02:48:58;5.60;99.90
6375;DHT22;35400;45.472;-122.822;2022-12-10T02:51:28;5.60;99.90
6375;DHT22;35400;45.472;-122.822;2022-12-10T02:54:04;5.60;99.90
6375;DHT22;35400;45.472;-122.822;2022-12-10T02:56:48;5.60;99.90
6375;DHT22;35400;45.472;-122.822;2022-12-10T02:59:46;5.60;99.90
6375;DHT22;35400;45.472;-122.822;2022-12-10T03:02:29;5.60;99.90
6375;DHT22;35400;45.472;-122.822;2022-12-10T03:05:09;5.60;99.90
6375;DHT22;35400;45.472;-122.822;2022-12-10T03:13:04;5.60;99.90
6375;DHT22;35400;45.472;-122.822;2022-12-10T03:15:35;5.60;99.90
6375;DHT22;35400;45.472;-122.822;2022-12-10T03:18:04;5.60;99.90
6375;DHT22;35400;45.472;-122.822;2022-12-10T03:20:36;5.50;99.90
6375;DHT22;35400;45.472;-122.822;2022-12-10T03:23:08;5.50;99.90
6375;DHT22;35400;45.472;-122.822;2022-12-10T03:25:37;5.50;99.90
6375;DHT22;35400;45.472;-122.822;2022-12-10T03:28:06;5.50;99.90
6375;DHT22;35400;45.472;-122.822;2022-12-10T03:30:36;5.50;99.90
6375;DHT22;35400;45.472;-122.822;2022-12-10T03:33:05;5.60;99.90
6375;DHT22;35400;45.472;-122.822;2022-12-10T03:35:32;5.60;99.90
6375;DHT22;35400;45.472;-122.822;2022-12-10T03:38:00;5.60;99.90
6375;DHT22;35400;45.472;-122.822;2022-12-10T03:40:27;5.60;99.90
6375;DHT22;35400;45.472;-122.822;2022-12-10T03:42:54;5.60;99.90
6375;DHT22;35400;45.472;-122.822;2022-12-10T03:45:21;5.60;99.90
6375;DHT22;35400;45.472;-122.822;2022-12-10T03:47:48;5.60;99.90
6375;DHT22;35400;45.472;-122.822;2022-12-10T03:50:16;5.60;99.90
6375;DHT22;35400;45.472;-122.822;2022-12-10T03:52:43;5.60;99.90
6375;DHT22;35400;45.472;-122.822;2022-12-10T03:55:10;5.60;99.90
6375;DHT22;35400;45.472;-122.822;2022-12-10T03:57:37;5.60;99.90
6375;DHT22;35400;45.472;-122.822;2022-12-10T04:00:05;5.60;99.90
6375;DHT22;35400;45.472;-122.822;2022-12-10T04:02:38;5.60;99.90
6375;DHT22;35400;45.472;-122.822;2022-12-10T04:05:06;5.60;99.90
6375;DHT22;35400;45.472;-122.822;2022-12-10T04:07:34;5.60;99.90
6375;DHT22;35400;45.472;-122.822;2022-12-10T04:10:02;5.60;99.90
6375;DHT22;35400;45.472;-122.822;2022-12-10T04:12:29;5.60;99.90
6375;DHT22;35400;45.472;-122.822;2022-12-10T04:14:56;5.60;99.90
6375;DHT22;35400;45.472;-122.822;2022-12-10T04:17:41;5.60;99.90
6375;DHT22;35400;45.472;-122.822;2022-12-10T04:20:08;5.60;99.90
6375;DHT22;35400;45.472;-122.822;2022-12-10T04:22:54;5.60;99.90
6375;DHT22;35400;45.472;-122.822;2022-12-10T04:25:39;5.60;99.90
6375;DHT22;35400;45.472;-122.822;2022-12-10T04:28:24;5.60;99.90
6375;DHT22;35400;45.472;-122.822;2022-12-10T04:30:51;5.60;99.90
6375;DHT22;35400;45.472;-122.822;2022-12-10T04:33:18;5.60;99.90
6375;DHT22;35400;45.472;-122.822;2022-12-10T04:35:45;5.60;99.90
6375;DHT22;35400;45.472;-122.822;2022-12-10T04:38:12;5.50;99.90
6375;DHT22;35400;45.472;-122.822;2022-12-10T04:40:39;5.50;99.90
6375;DHT22;35400;45.472;-122.822;2022-12-10T04:43:06;5.60;99.90
6375;DHT22;35400;45.472;-122.822;2022-12-10T04:45:34;5.50;99.90
6375;DHT22;35400;45.472;-122.822;2022-12-10T04:48:02;5.50;99.90
6375;DHT22;35400;45.472;-122.822;2022-12-10T04:50:29;5.60;99.90
6375;DHT22;35400;45.472;-122.822;2022-12-10T04:52:56;5.60;99.90
6375;DHT22;35400;45.472;-122.822;2022-12-10T04:55:23;5.60;99.90
6375;DHT22;35400;45.472;-122.822;2022-12-10T04:57:50;5.60;99.90
6375;DHT22;35400;45.472;-122.822;2022-12-10T05:00:17;5.60;99.90
6375;DHT22;35400;45.472;-122.822;2022-12-10T05:02:44;5.60;99.90
6375;DHT22;35400;45.472;-122.822;2022-12-10T05:05:10;5.60;99.90
6375;DHT22;35400;45.472;-122.822;2022-12-10T05:07:38;5.60;99.90
6375;DHT22;35400;45.472;-122.822;2022-12-10T05:10:06;5.60;99.90
6375;DHT22;35400;45.472;-122.822;2022-12-10T05:12:33;5.60;99.90
6375;DHT22;35400;45.472;-122.822;2022-12-10T05:15:00;5.60;99.90
6375;DHT22;35400;45.472;-122.822;2022-12-10T05:17:27;5.60;99.90
6375;DHT22;35400;45.472;-122.822;2022-12-10T05:19:55;5.60;99.90
6375;DHT22;35400;45.472;-122.822;2022-12-10T05:22:22;5.60;99.90
6375;DHT22;35400;45.472;-122.822;2022-12-10T05:25:08;5.60;99.90
6375;DHT22;35400;45.472;-122.822;2022-12-10T05:27:34;5.60;99.90
6375;DHT22;35400;45.472;-122.822;2022-12-10T05:30:01;5.60;99.90
6375;DHT22;35400;45.472;-122.822;2022-12-10T05:32:28;5.60;99.90
6375;DHT22;35400;45.472;-122.822;2022-12-10T05:34:55;5.60;99.90
6375;DHT22;35400;45.472;-122.822;2022-12-10T05:37:22;5.60;99.90
6375;DHT22;35400;45.472;-122.822;2022-12-10T05:39:49;5.60;99.90
6375;DHT22;35400;45.472;-122.822;2022-12-10T05:42:16;5.70;99.90
6375;DHT22;35400;45.472;-122.822;2022-12-10T05:44:43;5.70;99.90
6375;DHT22;35400;45.472;-122.822;2022-12-10T05:47:10;5.70;99.90
6375;DHT22;35400;45.472;-122.822;2022-12-10T05:49:37;5.70;99.90
6375;DHT22;35400;45.472;-122.822;2022-12-10T05:52:04;5.70;99.90
6375;DHT22;35400;45.472;-122.822;2022-12-10T05:54:31;5.80;99.90
6375;DHT22;35400;45.472;-122.822;2022-12-10T05:56:58;5.80;99.90
6375;DHT22;35400;45.472;-122.822;2022-12-10T05:59:25;5.80;99.90
6375;DHT22;35400;45.472;-122.822;2022-12-10T06:01:51;5.90;99.90
6375;DHT22;35400;45.472;-122.822;2022-12-10T06:04:19;5.90;99.90
6375;DHT22;35400;45.472;-122.822;2022-12-10T06:06:46;5.90;99.90
6375;DHT22;35400;45.472;-122.822;2022-12-10T06:09:14;5.90;99.90
6375;DHT22;35400;45.472;-122.822;2022-12-10T06:11:41;5.90;99.90
6375;DHT22;35400;45.472;-122.822;2022-12-10T06:14:09;6.00;99.90
6375;DHT22;35400;45.472;-122.822;2022-12-10T06:16:38;6.00;99.90
6375;DHT22;35400;45.472;-122.822;2022-12-10T06:19:05;6.00;99.90
6375;DHT22;35400;45.472;-122.822;2022-12-10T06:21:32;6.00;99.90
6375;DHT22;35400;45.472;-122.822;2022-12-10T06:23:59;6.10;99.90
6375;DHT22;35400;45.472;-122.822;2022-12-10T06:26:26;6.10;99.90
6375;DHT22;35400;45.472;-122.822;2022-12-10T06:28:53;6.30;99.90
6375;DHT22;35400;45.472;-122.822;2022-12-10T06:31:21;6.40;99.90
6375;DHT22;35400;45.472;-122.822;2022-12-10T06:33:48;6.60;99.90
6375;DHT22;35400;45.472;-122.822;2022-12-10T06:36:16;6.70;99.90
6375;DHT22;35400;45.472;-122.822;2022-12-10T06:38:43;6.80;99.90
6375;DHT22;35400;45.472;-122.822;2022-12-10T06:41:13;6.90;99.90
6375;DHT22;35400;45.472;-122.822;2022-12-10T06:43:40;7.00;99.90
6375;DHT22;35400;45.472;-122.822;2022-12-10T06:46:10;7.10;99.90
6375;DHT22;35400;45.472;-122.822;2022-12-10T06:48:37;7.20;99.90
6375;DHT22;35400;45.472;-122.822;2022-12-10T06:51:05;7.30;99.90
6375;DHT22;35400;45.472;-122.822;2022-12-10T06:53:33;7.40;99.90
6375;DHT22;35400;45.472;-122.822;2022-12-10T06:56:02;7.50;99.90
6375;DHT22;35400;45.472;-122.822;2022-12-10T06:58:31;7.60;99.90
6375;DHT22;35400;45.472;-122.822;2022-12-10T07:01:12;7.60;99.90
6375;DHT22;35400;45.472;-122.822;2022-12-10T07:03:41;7.70;99.90
6375;DHT22;35400;45.472;-122.822;2022-12-10T07:06:10;7.80;99.90
6375;DHT22;35400;45.472;-122.822;2022-12-10T07:08:38;7.90;99.90
6375;DHT22;35400;45.472;-122.822;2022-12-10T07:11:06;8.00;99.90
6375;DHT22;35400;45.472;-122.822;2022-12-10T07:13:34;8.00;99.90
6375;DHT22;35400;45.472;-122.822;2022-12-10T07:16:02;8.10;99.90
6375;DHT22;35400;45.472;-122.822;2022-12-10T07:18:29;8.10;99.90
6375;DHT22;35400;45.472;-122.822;2022-12-10T07:20:56;8.10;99.90
6375;DHT22;35400;45.472;-122.822;2022-12-10T07:23:24;8.20;99.90
6375;DHT22;35400;45.472;-122.822;2022-12-10T07:25:50;8.20;99.90
6375;DHT22;35400;45.472;-122.822;2022-12-10T07:28:20;8.20;99.90
6375;DHT22;35400;45.472;-122.822;2022-12-10T07:30:47;8.30;99.90
6375;DHT22;35400;45.472;-122.822;2022-12-10T07:33:14;8.30;99.90
6375;DHT22;35400;45.472;-122.822;2022-12-10T07:35:41;8.40;99.90
6375;DHT22;35400;45.472;-122.822;2022-12-10T07:38:08;8.50;99.90
6375;DHT22;35400;45.472;-122.822;2022-12-10T07:40:35;8.50;99.90
6375;DHT22;35400;45.472;-122.822;2022-12-10T07:43:02;8.60;99.90
6375;DHT22;35400;45.472;-122.822;2022-12-10T07:45:29;8.60;99.90
6375;DHT22;35400;45.472;-122.822;2022-12-10T07:47:56;8.70;99.90
6375;DHT22;35400;45.472;-122.822;2022-12-10T07:50:22;8.70;99.90
6375;DHT22;35400;45.472;-122.822;2022-12-10T07:52:49;8.70;99.90
6375;DHT22;35400;45.472;-122.822;2022-12-10T07:55:16;8.80;99.90
6375;DHT22;35400;45.472;-122.822;2022-12-10T07:57:43;8.80;99.90
6375;DHT22;35400;45.472;-122.822;2022-12-10T08:00:11;8.80;99.90
6375;DHT22;35400;45.472;-122.822;2022-12-10T08:02:41;8.80;99.90
6375;DHT22;35400;45.472;-122.822;2022-12-10T08:05:08;8.80;99.90
6375;DHT22;35400;45.472;-122.822;2022-12-10T08:07:36;8.80;99.90
6375;DHT22;35400;45.472;-122.822;2022-12-10T08:10:03;8.80;99.90
6375;DHT22;35400;45.472;-122.822;2022-12-10T08:12:30;8.80;99.90
6375;DHT22;35400;45.472;-122.822;2022-12-10T08:14:57;8.80;99.90
6375;DHT22;35400;45.472;-122.822;2022-12-10T08:17:24;8.80;99.90
6375;DHT22;35400;45.472;-122.822;2022-12-10T08:19:52;8.80;99.90
6375;DHT22;35400;45.472;-122.822;2022-12-10T08:22:21;8.80;99.90
6375;DHT22;35400;45.472;-122.822;2022-12-10T08:24:48;8.80;99.90
6375;DHT22;35400;45.472;-122.822;2022-12-10T08:27:15;8.80;99.90
6375;DHT22;35400;45.472;-122.822;2022-12-10T08:29:42;8.80;99.90
6375;DHT22;35400;45.472;-122.822;2022-12-10T08:32:09;8.80;99.90
6375;DHT22;35400;45.472;-122.822;2022-12-10T08:34:36;8.80;99.90
6375;DHT22;35400;45.472;-122.822;2022-12-10T08:37:03;8.80;99.90
6375;DHT22;35400;45.472;-122.822;2022-12-10T08:39:31;8.80;99.90
6375;DHT22;35400;45.472;-122.822;2022-12-10T08:41:58;8.80;99.90
6375;DHT22;35400;45.472;-122.822;2022-12-10T08:44:25;8.80;99.90
6375;DHT22;35400;45.472;-122.822;2022-12-10T08:46:52;8.80;99.90
6375;DHT22;35400;45.472;-122.822;2022-12-10T08:49:19;8.80;99.90
6375;DHT22;35400;45.472;-122.822;2022-12-10T08:51:46;8.80;99.90
6375;DHT22;35400;45.472;-122.822;2022-12-10T08:54:13;8.80;99.90
6375;DHT22;35400;45.472;-122.822;2022-12-10T08:56:39;8.70;99.90
6375;DHT22;35400;45.472;-122.822;2022-12-10T08:59:07;8.70;99.90
6375;DHT22;35400;45.472;-122.822;2022-12-10T09:01:34;8.70;99.90
6375;DHT22;35400;45.472;-122.822;2022-12-10T09:04:01;8.70;99.90
6375;DHT22;35400;45.472;-122.822;2022-12-10T09:06:28;8.70;99.90
6375;DHT22;35400;45.472;-122.822;2022-12-10T09:08:56;8.70;99.90
6375;DHT22;35400;45.472;-122.822;2022-12-10T09:11:26;8.70;99.90
6375;DHT22;35400;45.472;-122.822;2022-12-10T09:13:54;8.70;99.90
6375;DHT22;35400;45.472;-122.822;2022-12-10T09:16:21;8.70;99.90
6375;DHT22;35400;45.472;-122.822;2022-12-10T09:18:53;8.70;99.90
6375;DHT22;35400;45.472;-122.822;2022-12-10T09:21:20;8.70;99.90
6375;DHT22;35400;45.472;-122.822;2022-12-10T09:23:47;8.60;99.90
6375;DHT22;35400;45.472;-122.822;2022-12-10T09:26:16;8.60;99.90
6375;DHT22;35400;45.472;-122.822;2022-12-10T09:28:44;8.60;99.90
6375;DHT22;35400;45.472;-122.822;2022-12-10T09:31:12;8.60;99.90
6375;DHT22;35400;45.472;-122.822;2022-12-10T09:33:40;8.60;99.90
6375;DHT22;35400;45.472;-122.822;2022-12-10T09:36:09;8.50;99.90
6375;DHT22;35400;45.472;-122.822;2022-12-10T09:38:38;8.50;99.90
6375;DHT22;35400;45.472;-122.822;2022-12-10T09:41:21;8.50;99.90
6375;DHT22;35400;45.472;-122.822;2022-12-10T09:46:58;8.40;99.90
6375;DHT22;35400;45.472;-122.822;2022-12-10T09:52:14;8.30;99.90
6375;DHT22;35400;45.472;-122.822;2022-12-10T09:57:37;8.30;99.90
6375;DHT22;35400;45.472;-122.822;2022-12-10T10:00:46;8.30;99.90
6375;DHT22;35400;45.472;-122.822;2022-12-10T10:03:14;8.20;99.90
6375;DHT22;35400;45.472;-122.822;2022-12-10T10:05:48;8.20;99.90
6375;DHT22;35400;45.472;-122.822;2022-12-10T10:08:51;8.20;99.90
6375;DHT22;35400;45.472;-122.822;2022-12-10T10:11:22;8.20;99.90
6375;DHT22;35400;45.472;-122.822;2022-12-10T10:13:53;8.10;99.90
6375;DHT22;35400;45.472;-122.822;2022-12-10T10:16:50;8.10;99.90
6375;DHT22;35400;45.472;-122.822;2022-12-10T10:19:24;8.10;99.90
6375;DHT22;35400;45.472;-122.822;2022-12-10T10:21:52;8.10;99.90
6375;DHT22;35400;45.472;-122.822;2022-12-10T10:24:22;8.10;99.90
6375;DHT22;35400;45.472;-122.822;2022-12-10T10:26:53;8.00;99.90
6375;DHT22;35400;45.472;-122.822;2022-12-10T10:29:23;8.00;99.90
6375;DHT22;35400;45.472;-122.822;2022-12-10T10:32:22;8.00;99.90
6375;DHT22;35400;45.472;-122.822;2022-12-10T10:34:55;8.00;99.90
6375;DHT22;35400;45.472;-122.822;2022-12-10T10:37:39;8.00;99.90
6375;DHT22;35400;45.472;-122.822;2022-12-10T10:40:29;8.00;99.90
6375;DHT22;35400;45.472;-122.822;2022-12-10T10:42:58;8.00;99.90
6375;DHT22;35400;45.472;-122.822;2022-12-10T10:45:39;7.90;99.90
6375;DHT22;35400;45.472;-122.822;2022-12-10T10:48:11;7.90;99.90
6375;DHT22;35400;45.472;-122.822;2022-12-10T10:50:41;7.90;99.90
6375;DHT22;35400;45.472;-122.822;2022-12-10T10:53:28;7.90;99.90
6375;DHT22;35400;45.472;-122.822;2022-12-10T10:56:07;7.90;99.90
6375;DHT22;35400;45.472;-122.822;2022-12-10T10:58:36;7.90;99.90
6375;DHT22;35400;45.472;-122.822;2022-12-10T11:01:11;7.80;99.90
6375;DHT22;35400;45.472;-122.822;2022-12-10T11:03:47;7.80;99.90
6375;DHT22;35400;45.472;-122.822;2022-12-10T11:06:15;7.80;99.90
6375;DHT22;35400;45.472;-122.822;2022-12-10T11:08:44;7.80;99.90
6375;DHT22;35400;45.472;-122.822;2022-12-10T11:11:36;7.80;99.90
6375;DHT22;35400;45.472;-122.822;2022-12-10T11:14:27;7.80;99.90
6375;DHT22;35400;45.472;-122.822;2022-12-10T11:19:54;7.70;99.90
6375;DHT22;35400;45.472;-122.822;2022-12-10T11:22:27;7.70;99.90
6375;DHT22;35400;45.472;-122.822;2022-12-10T11:24:54;7.70;99.90
6375;DHT22;35400;45.472;-122.822;2022-12-10T11:44:25;7.60;99.90
6375;DHT22;35400;45.472;-122.822;2022-12-10T11:52:57;7.50;99.90
6375;DHT22;35400;45.472;-122.822;2022-12-10T12:12:55;7.50;99.90
6375;DHT22;35400;45.472;-122.822;2022-12-10T12:15:39;7.50;99.90
6375;DHT22;35400;45.472;-122.822;2022-12-10T12:18:18;7.50;99.90
6375;DHT22;35400;45.472;-122.822;2022-12-10T12:20:53;7.50;99.90
6375;DHT22;35400;45.472;-122.822;2022-12-10T12:29:36;7.50;99.90
6375;DHT22;35400;45.472;-122.822;2022-12-10T12:34:56;7.50;99.90
6375;DHT22;35400;45.472;-122.822;2022-12-10T12:37:35;7.50;99.90
6375;DHT22;35400;45.472;-122.822;2022-12-10T12:40:09;7.50;99.90
6375;DHT22;35400;45.472;-122.822;2022-12-10T12:42:58;7.40;99.90
6375;DHT22;35400;45.472;-122.822;2022-12-10T12:50:54;7.40;99.90
6375;DHT22;35400;45.472;-122.822;2022-12-10T12:53:23;7.40;99.90
6375;DHT22;35400;45.472;-122.822;2022-12-10T13:05:20;7.40;99.90
6375;DHT22;35400;45.472;-122.822;2022-12-10T13:13:39;7.40;99.90
6375;DHT22;35400;45.472;-122.822;2022-12-10T13:16:34;7.40;99.90
6375;DHT22;35400;45.472;-122.822;2022-12-10T13:22:06;7.30;99.90
6375;DHT22;35400;45.472;-122.822;2022-12-10T13:24:45;7.40;99.90
6375;DHT22;35400;45.472;-122.822;2022-12-10T13:27:28;7.30;99.90
6375;DHT22;35400;45.472;-122.822;2022-12-10T13:32:46;7.30;99.90
6375;DHT22;35400;45.472;-122.822;2022-12-10T13:40:39;7.30;99.90
6375;DHT22;35400;45.472;-122.822;2022-12-10T13:43:36;7.30;99.90
6375;DHT22;35400;45.472;-122.822;2022-12-10T13:49:01;7.30;99.90
6375;DHT22;35400;45.472;-122.822;2022-12-10T13:51:55;7.20;99.90
6375;DHT22;35400;45.472;-122.822;2022-12-10T13:57:21;7.30;99.90
6375;DHT22;35400;45.472;-122.822;2022-12-10T14:08:28;7.20;99.90
6375;DHT22;35400;45.472;-122.822;2022-12-10T14:10:58;7.20;99.90
6375;DHT22;35400;45.472;-122.822;2022-12-10T14:13:36;7.20;99.90
6375;DHT22;35400;45.472;-122.822;2022-12-10T14:16:05;7.20;99.90
6375;DHT22;35400;45.472;-122.822;2022-12-10T14:18:36;7.20;99.90
6375;DHT22;35400;45.472;-122.822;2022-12-10T14:21:06;7.20;99.90
6375;DHT22;35400;45.472;-122.822;2022-12-10T14:23:34;7.20;99.90
6375;DHT22;35400;45.472;-122.822;2022-12-10T14:28:32;7.20;99.90
6375;DHT22;35400;45.472;-122.822;2022-12-10T14:31:09;7.20;99.90
6375;DHT22;35400;45.472;-122.822;2022-12-10T14:33:39;7.20;99.90
6375;DHT22;35400;45.472;-122.822;2022-12-10T14:36:06;7.20;99.90
6375;DHT22;35400;45.472;-122.822;2022-12-10T14:38:33;7.20;99.90
6375;DHT22;35400;45.472;-122.822;2022-12-10T14:41:02;7.20;99.90
6375;DHT22;35400;45.472;-122.822;2022-12-10T14:43:36;7.20;99.90
6375;DHT22;35400;45.472;-122.822;2022-12-10T14:46:05;7.20;99.90
6375;DHT22;35400;45.472;-122.822;2022-12-10T14:48:40;7.20;99.90
6375;DHT22;35400;45.472;-122.822;2022-12-10T14:51:20;7.20;99.90
6375;DHT22;35400;45.472;-122.822;2022-12-10T14:53:49;7.10;99.90
6375;DHT22;35400;45.472;-122.822;2022-12-10T14:56:35;7.10;99.90
6375;DHT22;35400;45.472;-122.822;2022-12-10T14:59:16;7.10;99.90
6375;DHT22;35400;45.472;-122.822;2022-12-10T15:01:53;7.10;99.90
6375;DHT22;35400;45.472;-122.822;2022-12-10T15:04:39;7.10;99.90
6375;DHT22;35400;45.472;-122.822;2022-12-10T15:07:11;7.10;99.90
6375;DHT22;35400;45.472;-122.822;2022-12-10T15:09:39;7.10;99.90
6375;DHT22;35400;45.472;-122.822;2022-12-10T15:12:27;7.10;99.90
6375;DHT22;35400;45.472;-122.822;2022-12-10T15:14:57;7.10;99.90
6375;DHT22;35400;45.472;-122.822;2022-12-10T15:17:50;7.10;99.90
6375;DHT22;35400;45.472;-122.822;2022-12-10T15:20:22;7.10;99.90
6375;DHT22;35400;45.472;-122.822;2022-12-10T15:22:50;7.00;99.90
6375;DHT22;35400;45.472;-122.822;2022-12-10T15:25:22;7.00;99.90
6375;DHT22;35400;45.472;-122.822;2022-12-10T15:28:00;7.00;99.90
6375;DHT22;35400;45.472;-122.822;2022-12-10T15:30:37;7.00;99.90
6375;DHT22;35400;45.472;-122.822;2022-12-10T15:35:49;7.00;99.90
6375;DHT22;35400;45.472;-122.822;2022-12-10T15:38:16;7.00;99.90
6375;DHT22;35400;45.472;-122.822;2022-12-10T15:40:44;7.00;99.90
6375;DHT22;35400;45.472;-122.822;2022-12-10T15:43:31;7.00;99.90
6375;DHT22;35400;45.472;-122.822;2022-12-10T15:45:58;7.00;99.90
6375;DHT22;35400;45.472;-122.822;2022-12-10T15:48:28;6.90;99.90
6375;DHT22;35400;45.472;-122.822;2022-12-10T15:50:56;7.00;99.90
6375;DHT22;35400;45.472;-122.822;2022-12-10T15:53:34;6.90;99.90
6375;DHT22;35400;45.472;-122.822;2022-12-10T15:56:01;7.00;99.90
6375;DHT22;35400;45.472;-122.822;2022-12-10T15:58:29;6.90;99.90
6375;DHT22;35400;45.472;-122.822;2022-12-10T16:00:55;6.90;99.90
6375;DHT22;35400;45.472;-122.822;2022-12-10T16:03:23;6.90;99.90
6375;DHT22;35400;45.472;-122.822;2022-12-10T16:05:51;7.00;99.90
6375;DHT22;35400;45.472;-122.822;2022-12-10T16:08:23;7.00;99.90
6375;DHT22;35400;45.472;-122.822;2022-12-10T16:10:52;7.00;99.90
6375;DHT22;35400;45.472;-122.822;2022-12-10T16:13:25;6.90;99.90
6375;DHT22;35400;45.472;-122.822;2022-12-10T16:15:57;6.90;99.90
6375;DHT22;35400;45.472;-122.822;2022-12-10T16:18:25;7.00;99.90
6375;DHT22;35400;45.472;-122.822;2022-12-10T16:20:52;6.90;99.90
6375;DHT22;35400;45.472;-122.822;2022-12-10T16:23:19;7.00;99.90
6375;DHT22;35400;45.472;-122.822;2022-12-10T16:25:47;7.00;99.90
6375;DHT22;35400;45.472;-122.822;2022-12-10T16:28:17;7.00;99.90
6375;DHT22;35400;45.472;-122.822;2022-12-10T16:30:46;7.00;99.90
6375;DHT22;35400;45.472;-122.822;2022-12-10T16:33:16;7.00;99.90
6375;DHT22;35400;45.472;-122.822;2022-12-10T16:35:45;7.10;99.90
6375;DHT22;35400;45.472;-122.822;2022-12-10T16:38:12;7.10;99.90
6375;DHT22;35400;45.472;-122.822;2022-12-10T16:40:41;7.20;99.90
6375;DHT22;35400;45.472;-122.822;2022-12-10T16:43:16;7.20;99.90
6375;DHT22;35400;45.472;-122.822;2022-12-10T16:45:43;7.20;99.90
6375;DHT22;35400;45.472;-122.822;2022-12-10T16:48:10;7.20;99.90
6375;DHT22;35400;45.472;-122.822;2022-12-10T16:50:38;7.20;99.90
6375;DHT22;35400;45.472;-122.822;2022-12-10T16:55:46;7.30;99.90
6375;DHT22;35400;45.472;-122.822;2022-12-10T16:58:14;7.40;99.90
6375;DHT22;35400;45.472;-122.822;2022-12-10T17:00:43;7.40;99.90
6375;DHT22;35400;45.472;-122.822;2022-12-10T17:03:12;7.40;99.90
6375;DHT22;35400;45.472;-122.822;2022-12-10T17:05:59;7.50;99.90
6375;DHT22;35400;45.472;-122.822;2022-12-10T17:08:27;7.50;99.90
6375;DHT22;35400;45.472;-122.822;2022-12-10T17:10:56;7.50;99.90
6375;DHT22;35400;45.472;-122.822;2022-12-10T17:14:02;7.50;99.90
6375;DHT22;35400;45.472;-122.822;2022-12-10T17:16:29;7.60;99.90
6375;DHT22;35400;45.472;-122.822;2022-12-10T17:18:56;7.60;99.90
6375;DHT22;35400;45.472;-122.822;2022-12-10T17:21:23;7.70;99.90
6375;DHT22;35400;45.472;-122.822;2022-12-10T17:23:50;7.80;99.90
6375;DHT22;35400;45.472;-122.822;2022-12-10T17:26:37;7.80;99.90
6375;DHT22;35400;45.472;-122.822;2022-12-10T17:29:37;7.90;99.90
6375;DHT22;35400;45.472;-122.822;2022-12-10T17:32:06;7.90;99.90
6375;DHT22;35400;45.472;-122.822;2022-12-10T17:34:33;8.00;99.90
6375;DHT22;35400;45.472;-122.822;2022-12-10T17:37:00;8.00;99.90
6375;DHT22;35400;45.472;-122.822;2022-12-10T17:39:27;8.00;99.90
6375;DHT22;35400;45.472;-122.822;2022-12-10T17:41:55;8.00;99.90
6375;DHT22;35400;45.472;-122.822;2022-12-10T17:44:22;8.00;99.90
6375;DHT22;35400;45.472;-122.822;2022-12-10T17:46:49;8.00;99.90
6375;DHT22;35400;45.472;-122.822;2022-12-10T17:49:16;8.00;99.90
6375;DHT22;35400;45.472;-122.822;2022-12-10T17:51:43;8.00;99.90
6375;DHT22;35400;45.472;-122.822;2022-12-10T17:54:10;8.10;99.90
6375;DHT22;35400;45.472;-122.822;2022-12-10T17:56:37;8.10;99.90